createdAt,value
2018-03-31T00:01:08.813Z,2.77
2018-03-31T00:03:36.851Z,2.60
2018-03-31T00:06:05.602Z,2.53
2018-03-31T00:08:33.742Z,2.37
2018-03-31T00:11:03.366Z,2.47
2018-03-31T00:13:31.171Z,2.60
2018-03-31T00:15:59.596Z,2.40
2018-03-31T00:18:27.477Z,2.40
2018-03-31T00:20:56.454Z,2.20
2018-03-31T00:23:25.154Z,2.10
2018-03-31T00:25:54.304Z,1.90
2018-03-31T00:28:23.195Z,2.33
2018-03-31T00:30:52.327Z,2.10
2018-03-31T00:33:20.747Z,2.10
2018-03-31T00:35:49.387Z,2.03
2018-03-31T00:38:18.000Z,2.13
2018-03-31T00:40:46.228Z,2.07
2018-03-31T00:43:15.750Z,2.00
2018-03-31T00:45:43.557Z,2.00
2018-03-31T00:48:12.139Z,1.70
2018-03-31T00:50:40.718Z,1.60
2018-03-31T00:53:10.371Z,1.50
2018-03-31T00:55:38.179Z,1.60
2018-03-31T00:58:07.337Z,1.63
2018-03-31T01:00:35.544Z,1.70
2018-03-31T01:03:04.265Z,1.60
2018-03-31T01:05:34.844Z,1.60
2018-03-31T01:08:02.954Z,1.47
2018-03-31T01:10:32.366Z,1.60
2018-03-31T01:13:01.490Z,1.57
2018-03-31T01:15:29.754Z,1.70
2018-03-31T01:17:58.440Z,1.60
2018-03-31T01:20:27.298Z,1.90
2018-03-31T01:22:55.523Z,1.87
2018-03-31T01:25:24.194Z,2.00
2018-03-31T01:27:51.990Z,1.97
2018-03-31T01:30:21.456Z,1.90
2018-03-31T01:32:50.616Z,2.40
2018-03-31T01:35:18.693Z,2.20
2018-03-31T01:37:48.560Z,2.70
2018-03-31T01:40:17.374Z,2.70
2018-03-31T01:42:46.120Z,2.70
2018-03-31T01:45:14.706Z,2.90
2018-03-31T01:47:43.348Z,3.13
2018-03-31T01:50:12.438Z,3.10
2018-03-31T01:52:42.248Z,2.90
2018-03-31T01:55:11.549Z,2.97
2018-03-31T01:57:41.317Z,2.90
2018-03-31T02:00:11.451Z,3.20
2018-03-31T02:02:41.109Z,3.23
2018-03-31T02:05:08.945Z,3.43
2018-03-31T02:07:36.755Z,3.20
2018-03-31T02:10:06.960Z,3.10
2018-03-31T02:12:35.635Z,3.13
2018-03-31T02:15:04.213Z,3.30
2018-03-31T02:17:32.033Z,3.40
2018-03-31T02:20:00.280Z,3.10
2018-03-31T02:22:28.540Z,3.33
2018-03-31T02:24:57.456Z,3.10
2018-03-31T02:27:26.031Z,3.67
2018-03-31T02:29:55.172Z,3.50
2018-03-31T02:32:22.980Z,3.63
2018-03-31T02:34:50.887Z,3.57
2018-03-31T02:37:19.584Z,3.40
2018-03-31T02:39:47.414Z,3.80
2018-03-31T02:42:15.225Z,3.87
2018-03-31T02:44:45.535Z,3.90
2018-03-31T02:47:13.976Z,4.27
2018-03-31T02:49:43.199Z,4.67
2018-03-31T02:52:11.336Z,4.10
2018-03-31T02:54:40.182Z,4.30
2018-03-31T02:57:08.500Z,4.10
2018-03-31T02:59:37.323Z,4.10
2018-03-31T03:02:06.157Z,4.43
2018-03-31T03:04:33.961Z,4.53
2018-03-31T03:07:01.841Z,4.20
2018-03-31T03:09:30.011Z,4.40
2018-03-31T03:11:58.150Z,4.50
2018-03-31T03:14:26.738Z,4.50
2018-03-31T03:16:55.258Z,4.90
2018-03-31T03:19:24.517Z,4.47
2018-03-31T03:21:54.134Z,4.57
2018-03-31T03:24:21.688Z,4.07
2018-03-31T03:26:50.046Z,4.20
2018-03-31T03:29:18.700Z,4.10
2018-03-31T03:31:46.624Z,4.10
2018-03-31T03:34:14.190Z,4.33
2018-03-31T03:36:42.761Z,4.30
2018-03-31T03:39:10.791Z,4.43
2018-03-31T03:41:38.568Z,4.40
2018-03-31T03:44:07.282Z,5.00
2018-03-31T03:46:35.279Z,4.63
2018-03-31T03:49:03.819Z,4.77
2018-03-31T03:51:32.475Z,5.20
2018-03-31T03:54:00.022Z,5.30
2018-03-31T03:56:29.119Z,5.00
2018-03-31T03:58:58.008Z,5.20
2018-03-31T04:01:25.621Z,5.10
2018-03-31T04:03:54.074Z,5.37
2018-03-31T04:06:21.590Z,5.37
2018-03-31T04:08:49.705Z,5.50
2018-03-31T04:11:17.302Z,5.70
2018-03-31T04:13:45.530Z,5.97
2018-03-31T04:16:13.053Z,5.87
2018-03-31T04:18:40.980Z,5.90
2018-03-31T04:21:08.510Z,5.43
2018-03-31T04:23:36.913Z,5.77
2018-03-31T04:26:04.505Z,6.13
2018-03-31T04:28:33.009Z,5.67
2018-03-31T04:31:01.039Z,5.77
2018-03-31T04:33:29.070Z,5.90
2018-03-31T04:35:58.502Z,6.03
2018-03-31T04:38:26.826Z,5.77
2018-03-31T04:40:55.501Z,5.27
2018-03-31T04:43:23.718Z,6.50
2018-03-31T04:45:51.279Z,6.70
2018-03-31T04:48:19.657Z,6.60
2018-03-31T04:50:48.230Z,6.67
2018-03-31T04:53:15.849Z,6.60
2018-03-31T04:55:44.159Z,7.00
2018-03-31T04:58:13.373Z,7.20
2018-03-31T05:00:45.615Z,7.20
2018-03-31T05:03:14.147Z,7.30
2018-03-31T05:05:41.952Z,7.30
2018-03-31T05:08:10.196Z,7.50
2018-03-31T05:10:37.804Z,7.77
2018-03-31T05:13:06.284Z,8.27
2018-03-31T05:15:34.149Z,7.97
2018-03-31T05:18:01.667Z,7.60
2018-03-31T05:20:30.093Z,6.93
2018-03-31T05:22:57.617Z,7.50
2018-03-31T05:25:26.392Z,7.07
2018-03-31T05:27:54.362Z,7.43
2018-03-31T05:30:21.917Z,7.33
2018-03-31T05:32:49.579Z,7.67
2018-03-31T05:35:17.380Z,7.00
2018-03-31T05:37:46.410Z,7.17
2018-03-31T05:40:14.918Z,7.90
2018-03-31T05:42:43.912Z,7.30
2018-03-31T05:45:12.806Z,7.60
2018-03-31T05:47:41.300Z,7.57
2018-03-31T05:50:09.961Z,7.63
2018-03-31T05:52:37.559Z,7.73
2018-03-31T05:55:05.132Z,7.77
2018-03-31T05:57:35.441Z,7.27
2018-03-31T06:00:03.330Z,6.93
2018-03-31T06:02:34.085Z,7.33
2018-03-31T06:05:02.714Z,8.07
2018-03-31T06:07:33.457Z,7.83
2018-03-31T06:10:02.216Z,8.20
2018-03-31T06:12:30.604Z,7.57
2018-03-31T06:14:59.757Z,7.73
2018-03-31T06:17:28.161Z,8.27
2018-03-31T06:19:55.685Z,7.57
2018-03-31T06:22:24.490Z,7.70
2018-03-31T06:24:52.873Z,7.73
2018-03-31T06:27:20.588Z,8.07
2018-03-31T06:29:48.805Z,8.23
2018-03-31T06:32:17.553Z,8.37
2018-03-31T06:34:45.286Z,7.70
2018-03-31T06:37:13.999Z,7.33
2018-03-31T06:39:44.283Z,8.20
2018-03-31T06:42:13.336Z,8.03
2018-03-31T06:44:41.109Z,7.60
2018-03-31T06:47:10.375Z,7.87
2018-03-31T06:49:38.511Z,7.80
2018-03-31T06:52:07.721Z,7.50
2018-03-31T06:54:35.599Z,7.70
2018-03-31T06:57:04.793Z,7.10
2018-03-31T06:59:33.247Z,7.63
2018-03-31T07:02:01.640Z,7.93
2018-03-31T07:04:29.208Z,7.63
2018-03-31T07:06:57.723Z,7.80
2018-03-31T07:09:26.293Z,7.97
2018-03-31T07:11:54.110Z,7.80
2018-03-31T07:14:23.274Z,7.77
2018-03-31T07:16:52.396Z,8.50
2018-03-31T07:19:20.722Z,8.67
2018-03-31T07:21:49.427Z,8.17
2018-03-31T07:24:19.612Z,8.47
2018-03-31T07:26:48.131Z,8.63
2018-03-31T07:29:15.701Z,8.57
2018-03-31T07:31:43.255Z,7.30
2018-03-31T07:34:12.663Z,8.23
2018-03-31T07:36:41.054Z,9.00
2018-03-31T07:39:09.469Z,8.03
2018-03-31T07:41:37.303Z,7.87
2018-03-31T07:44:05.550Z,9.17
2018-03-31T07:46:33.688Z,7.73
2018-03-31T07:49:01.425Z,7.67
2018-03-31T07:51:29.822Z,8.47
2018-03-31T07:53:57.952Z,8.37
2018-03-31T07:56:27.020Z,7.70
2018-03-31T07:58:55.608Z,8.30
2018-03-31T08:01:24.788Z,7.63
2018-03-31T08:03:53.153Z,7.70
2018-03-31T08:06:21.568Z,7.57
2018-03-31T08:08:49.268Z,7.40
2018-03-31T08:11:16.832Z,7.70
2018-03-31T08:13:45.188Z,8.40
2018-03-31T08:16:13.097Z,9.23
2018-03-31T08:18:41.310Z,9.50
2018-03-31T08:21:09.132Z,9.97
2018-03-31T08:23:37.705Z,8.10
2018-03-31T08:26:06.082Z,7.60
2018-03-31T08:28:34.630Z,6.97
2018-03-31T08:31:02.287Z,7.17
2018-03-31T08:33:30.631Z,7.47
2018-03-31T08:36:00.157Z,7.47
2018-03-31T08:38:28.911Z,7.17
2018-03-31T08:40:57.395Z,7.90
2018-03-31T08:43:25.926Z,7.60
2018-03-31T08:45:55.500Z,7.07
2018-03-31T08:48:25.652Z,7.23
2018-03-31T08:50:54.336Z,7.77
2018-03-31T08:53:23.101Z,7.23
2018-03-31T08:55:50.653Z,6.70
2018-03-31T08:58:18.927Z,7.13
2018-03-31T09:00:47.079Z,7.60
2018-03-31T09:03:15.467Z,7.10
2018-03-31T09:05:44.563Z,7.10
2018-03-31T09:08:12.104Z,6.23
2018-03-31T09:10:40.424Z,6.57
2018-03-31T09:13:09.685Z,5.90
2018-03-31T09:15:37.584Z,6.73
2018-03-31T09:18:07.024Z,6.17
2018-03-31T09:20:35.675Z,6.57
2018-03-31T09:23:05.076Z,6.10
2018-03-31T09:25:33.516Z,6.87
2018-03-31T09:28:02.063Z,6.83
2018-03-31T09:30:30.827Z,6.77
2018-03-31T09:32:59.102Z,6.50
2018-03-31T09:35:26.638Z,6.63
2018-03-31T09:37:55.544Z,7.40
2018-03-31T09:40:24.239Z,7.60
2018-03-31T09:42:53.657Z,7.20
2018-03-31T09:45:22.139Z,7.47
2018-03-31T09:47:50.878Z,7.20
2018-03-31T09:50:19.482Z,6.67
2018-03-31T09:52:47.381Z,7.00
2018-03-31T09:55:15.190Z,6.30
2018-03-31T09:57:45.137Z,5.37
2018-03-31T10:00:14.486Z,4.70
2018-03-31T10:02:42.822Z,5.60
2018-03-31T10:05:10.383Z,5.73
2018-03-31T10:07:37.988Z,5.87
2018-03-31T10:10:05.532Z,6.17
2018-03-31T10:12:33.978Z,6.07
2018-03-31T10:15:01.708Z,6.63
2018-03-31T10:17:29.505Z,5.37
2018-03-31T10:19:57.430Z,6.03
2018-03-31T10:22:25.000Z,5.43
2018-03-31T10:24:53.036Z,5.20
2018-03-31T10:27:21.602Z,4.20
2018-03-31T10:29:49.142Z,4.70
2018-03-31T10:32:16.710Z,3.97
2018-03-31T10:34:45.605Z,3.87
2018-03-31T10:37:14.441Z,3.93
2018-03-31T10:39:42.342Z,4.47
2018-03-31T10:42:10.187Z,4.27
2018-03-31T10:44:38.130Z,4.67
2018-03-31T10:47:05.656Z,4.77
2018-03-31T10:49:34.288Z,5.20
2018-03-31T10:52:03.269Z,4.30
2018-03-31T10:54:33.889Z,4.63
2018-03-31T10:57:02.219Z,4.63
2018-03-31T10:59:30.726Z,4.23
2018-03-31T11:01:58.303Z,5.67
2018-03-31T11:04:25.923Z,4.77
2018-03-31T11:06:53.479Z,4.30
2018-03-31T11:09:22.121Z,4.83
2018-03-31T11:11:50.522Z,3.63
2018-03-31T11:14:18.036Z,3.70
2018-03-31T11:16:47.438Z,3.73
2018-03-31T11:19:15.679Z,4.00
2018-03-31T11:21:44.528Z,3.30
2018-03-31T11:24:13.186Z,3.20
2018-03-31T11:26:41.600Z,2.67
2018-03-31T11:29:11.031Z,3.00
2018-03-31T11:31:39.623Z,2.70
2018-03-31T11:34:08.809Z,2.97
2018-03-31T11:36:37.293Z,2.80
2018-03-31T11:39:05.144Z,2.90
2018-03-31T11:41:33.505Z,2.83
2018-03-31T11:44:01.631Z,2.83
2018-03-31T11:46:29.539Z,2.37
2018-03-31T11:48:57.447Z,2.73
2018-03-31T11:51:25.088Z,2.50
2018-03-31T11:53:52.607Z,2.37
2018-03-31T11:56:21.480Z,2.87
2018-03-31T11:58:49.302Z,2.57
2018-03-31T12:01:17.657Z,2.23
2018-03-31T12:03:45.174Z,2.43
2018-03-31T12:06:13.510Z,2.77
2018-03-31T12:08:41.104Z,2.73
2018-03-31T12:11:08.747Z,2.60
2018-03-31T12:13:37.232Z,2.83
2018-03-31T12:16:04.769Z,2.97
2018-03-31T12:18:32.783Z,2.20
2018-03-31T12:21:00.948Z,2.47
2018-03-31T12:23:28.752Z,2.80
2018-03-31T12:25:57.402Z,2.73
2018-03-31T12:28:25.711Z,2.20
2018-03-31T12:30:54.022Z,2.40
2018-03-31T12:33:21.575Z,2.40
2018-03-31T12:35:49.828Z,2.13
2018-03-31T12:38:18.259Z,5.10
2018-03-31T12:40:46.598Z,2.63
2018-03-31T12:43:15.204Z,1.87
2018-03-31T12:45:42.918Z,2.00
2018-03-31T12:48:11.164Z,2.10
2018-03-31T12:50:40.363Z,4.43
2018-03-31T12:53:08.646Z,3.60
2018-03-31T12:55:37.003Z,1.90
2018-03-31T12:58:05.911Z,1.90
2018-03-31T13:00:33.489Z,1.50
2018-03-31T13:03:01.725Z,1.60
2018-03-31T13:05:30.091Z,1.53
2018-03-31T13:07:57.864Z,1.50
2018-03-31T13:10:26.448Z,1.10
2018-03-31T13:12:53.976Z,1.00
2018-03-31T13:15:21.523Z,1.50
2018-03-31T13:17:49.783Z,1.10
2018-03-31T13:20:18.177Z,1.10
2018-03-31T13:22:45.921Z,0.80
2018-03-31T13:25:13.819Z,0.97
2018-03-31T13:27:42.024Z,0.90
2018-03-31T13:30:10.471Z,0.90
2018-03-31T13:32:40.329Z,1.00
2018-03-31T13:35:10.459Z,1.00
2018-03-31T13:37:38.304Z,0.90
2018-03-31T13:40:05.830Z,0.90
2018-03-31T13:42:34.482Z,0.90
2018-03-31T13:45:02.362Z,1.10
2018-03-31T13:47:31.082Z,0.93
2018-03-31T13:49:59.558Z,1.03
2018-03-31T13:52:28.337Z,1.00
2018-03-31T13:54:57.071Z,0.93
2018-03-31T13:57:25.194Z,1.20
2018-03-31T13:59:52.722Z,0.90
2018-03-31T14:02:22.190Z,0.83
2018-03-31T14:04:50.585Z,1.03
2018-03-31T14:07:18.455Z,0.90
2018-03-31T14:09:47.860Z,0.80
2018-03-31T14:12:16.306Z,0.80
2018-03-31T14:14:43.848Z,1.10
2018-03-31T14:17:11.457Z,0.70
2018-03-31T14:19:39.035Z,0.83
2018-03-31T14:22:06.638Z,0.80
2018-03-31T14:24:36.073Z,0.90
2018-03-31T14:27:03.627Z,1.03
2018-03-31T14:29:31.148Z,0.80
2018-03-31T14:32:00.073Z,0.90
2018-03-31T14:34:27.605Z,0.80
2018-03-31T14:36:57.124Z,0.80
2018-03-31T14:39:25.475Z,0.97
2018-03-31T14:41:53.906Z,1.30
2018-03-31T14:44:21.482Z,0.93
2018-03-31T14:46:49.243Z,0.93
2018-03-31T14:49:16.835Z,0.70
2018-03-31T14:51:44.584Z,0.90
2018-03-31T14:54:12.917Z,1.00
2018-03-31T14:56:40.441Z,1.17
2018-03-31T14:59:11.905Z,1.33
2018-03-31T15:01:40.051Z,1.10
2018-03-31T15:04:08.531Z,1.10
2018-03-31T15:06:37.870Z,1.20
2018-03-31T15:09:05.778Z,1.20
2018-03-31T15:11:34.340Z,1.20
2018-03-31T15:14:03.352Z,1.03
2018-03-31T15:16:30.991Z,1.03
2018-03-31T15:19:00.586Z,1.23
2018-03-31T15:21:29.360Z,1.10
2018-03-31T15:23:57.605Z,1.40
2018-03-31T15:26:25.947Z,1.10
2018-03-31T15:28:53.870Z,1.00
2018-03-31T15:31:21.770Z,1.13
2018-03-31T15:33:51.435Z,1.10
2018-03-31T15:36:20.043Z,1.20
2018-03-31T15:38:48.264Z,1.03
2018-03-31T15:41:16.523Z,1.10
2018-03-31T15:43:44.389Z,0.90
2018-03-31T15:46:12.783Z,1.00
2018-03-31T15:48:41.532Z,1.07
2018-03-31T15:51:09.316Z,0.97
2018-03-31T15:53:38.172Z,1.00
2018-03-31T15:56:07.514Z,0.90
2018-03-31T15:58:35.044Z,0.87
2018-03-31T16:01:04.745Z,0.90
2018-03-31T16:03:33.195Z,0.90
2018-03-31T16:06:01.287Z,1.13
2018-03-31T16:08:29.043Z,0.90
2018-03-31T16:10:57.033Z,1.17
2018-03-31T16:13:24.585Z,1.20
2018-03-31T16:15:52.697Z,1.20
2018-03-31T16:18:21.441Z,1.10
2018-03-31T16:20:51.964Z,1.20
2018-03-31T16:23:20.813Z,1.17
2018-03-31T16:25:50.385Z,1.23
2018-03-31T16:28:18.836Z,0.90
2018-03-31T16:30:47.289Z,1.20
2018-03-31T16:33:16.514Z,1.10
2018-03-31T16:35:46.477Z,1.17
2018-03-31T16:38:14.024Z,1.03
2018-03-31T16:40:42.216Z,1.30
2018-03-31T16:43:11.516Z,1.30
2018-03-31T16:45:40.189Z,1.30
2018-03-31T16:48:09.527Z,1.20
2018-03-31T16:50:37.980Z,1.57
2018-03-31T16:53:06.431Z,1.00
2018-03-31T16:55:35.959Z,1.10
2018-03-31T16:58:06.053Z,1.23
2018-03-31T17:00:34.464Z,0.97
2018-03-31T17:03:06.357Z,1.07
2018-03-31T17:05:34.310Z,1.10
2018-03-31T17:08:03.293Z,1.20
2018-03-31T17:10:34.445Z,1.50
2018-03-31T17:13:03.344Z,1.27
2018-03-31T17:15:33.039Z,1.30
2018-03-31T17:18:03.981Z,1.40
2018-03-31T17:20:39.355Z,1.47
2018-03-31T17:23:06.997Z,1.40
2018-03-31T17:25:36.417Z,1.60
2018-03-31T17:28:05.020Z,1.23
2018-03-31T17:30:34.085Z,1.83
2018-03-31T17:33:04.057Z,1.47
2018-03-31T17:35:33.506Z,1.80
2018-03-31T17:38:01.687Z,1.90
2018-03-31T17:40:33.010Z,2.10
2018-03-31T17:43:01.738Z,1.80
2018-03-31T17:45:29.308Z,1.77
2018-03-31T17:47:57.988Z,1.30
2018-03-31T17:50:28.684Z,1.40
2018-03-31T17:52:57.992Z,1.20
2018-03-31T17:55:26.233Z,1.30
2018-03-31T17:57:54.927Z,1.40
2018-03-31T18:00:23.265Z,1.30
2018-03-31T18:02:51.966Z,1.80
2018-03-31T18:05:21.387Z,1.80
2018-03-31T18:07:48.988Z,2.07
2018-03-31T18:10:17.252Z,1.90
2018-03-31T18:12:45.742Z,2.10
2018-03-31T18:15:14.928Z,11.60
2018-03-31T18:17:43.444Z,5.80
2018-03-31T18:20:10.978Z,2.60
2018-03-31T18:22:38.869Z,2.47
2018-03-31T18:25:07.396Z,2.30
2018-03-31T18:27:38.224Z,2.00
2018-03-31T18:30:08.474Z,2.07
2018-03-31T18:32:37.905Z,2.77
2018-03-31T18:35:07.124Z,2.53
2018-03-31T18:37:34.689Z,6.97
2018-03-31T18:40:03.591Z,4.50
2018-03-31T18:42:31.401Z,4.03
2018-03-31T18:44:59.665Z,3.10
2018-03-31T18:47:28.115Z,3.43
2018-03-31T18:49:55.671Z,3.33
2018-03-31T18:52:23.236Z,3.50
2018-03-31T18:54:51.066Z,4.47
2018-03-31T18:57:18.615Z,3.40
2018-03-31T18:59:46.190Z,4.00
2018-03-31T19:02:14.900Z,5.73
2018-03-31T19:04:43.146Z,4.90
2018-03-31T19:07:12.344Z,6.20
2018-03-31T19:09:39.931Z,5.77
2018-03-31T19:12:08.101Z,4.60
2018-03-31T19:14:44.217Z,4.13
2018-03-31T19:17:15.829Z,3.47
2018-03-31T19:19:45.005Z,3.13
2018-03-31T19:22:15.506Z,3.43
2018-03-31T19:24:49.453Z,3.30
2018-03-31T19:27:18.444Z,3.20
2018-03-31T19:29:47.184Z,3.30
2018-03-31T19:32:15.971Z,3.43
2018-03-31T19:34:43.808Z,3.13
2018-03-31T19:37:12.339Z,3.90
2018-03-31T19:39:45.410Z,4.40
2018-03-31T19:42:16.481Z,5.13
2018-03-31T19:44:45.106Z,4.33
2018-03-31T19:47:14.251Z,4.27
2018-03-31T19:49:43.593Z,4.63
2018-03-31T19:52:12.062Z,4.67
2018-03-31T19:54:40.280Z,4.73
2018-03-31T19:57:08.229Z,4.40
2018-03-31T19:59:36.156Z,4.43
2018-03-31T20:02:06.421Z,6.83
2018-03-31T20:04:34.985Z,8.57
2018-03-31T20:07:02.499Z,5.03
2018-03-31T20:09:32.333Z,4.83
2018-03-31T20:12:01.108Z,5.00
2018-03-31T20:14:32.684Z,4.80
2018-03-31T20:17:01.055Z,4.87
2018-03-31T20:19:29.337Z,4.40
2018-03-31T20:21:59.247Z,4.00
2018-03-31T20:24:27.302Z,3.90
2018-03-31T20:26:54.830Z,7.50
2018-03-31T20:29:23.314Z,4.83
2018-03-31T20:31:51.215Z,3.43
2018-03-31T20:34:19.095Z,3.03
2018-03-31T20:36:47.445Z,3.10
2018-03-31T20:39:16.230Z,3.30
2018-03-31T20:41:44.775Z,3.50
2018-03-31T20:44:13.139Z,3.07
2018-03-31T20:46:42.958Z,3.33
2018-03-31T20:49:10.926Z,3.00
2018-03-31T20:51:38.493Z,2.90
2018-03-31T20:54:07.099Z,3.60
2018-03-31T20:56:35.627Z,3.87
2018-03-31T20:59:04.359Z,4.97
2018-03-31T21:01:33.304Z,5.27
2018-03-31T21:04:00.858Z,4.50
2018-03-31T21:06:29.150Z,5.27
2018-03-31T21:08:56.715Z,4.93
2018-03-31T21:11:24.742Z,4.93
2018-03-31T21:13:52.264Z,5.43
2018-03-31T21:16:23.282Z,4.90
2018-03-31T21:18:52.644Z,5.10
2018-03-31T21:21:20.198Z,5.03
2018-03-31T21:23:48.004Z,6.00
2018-03-31T21:26:16.416Z,5.97
2018-03-31T21:28:44.639Z,7.13
2018-03-31T21:31:12.270Z,7.90
2018-03-31T21:33:40.128Z,7.03
2018-03-31T21:36:07.640Z,6.60
2018-03-31T21:38:35.748Z,7.30
2018-03-31T21:41:04.083Z,7.10
2018-03-31T21:43:32.615Z,7.33
2018-03-31T21:46:01.100Z,7.70
2018-03-31T21:48:29.459Z,7.40
2018-03-31T21:50:57.024Z,15.67
2018-03-31T21:53:25.591Z,14.60
2018-03-31T21:55:53.358Z,10.00
2018-03-31T21:58:22.206Z,8.07
2018-03-31T22:00:50.636Z,7.60
2018-03-31T22:03:19.479Z,7.13
2018-03-31T22:05:47.265Z,6.30
2018-03-31T22:08:16.409Z,5.70
2018-03-31T22:10:44.770Z,5.87
2018-03-31T22:13:20.244Z,19.83
2018-03-31T22:15:49.867Z,18.83
2018-03-31T22:18:18.260Z,19.60
2018-03-31T22:20:46.692Z,13.67
2018-03-31T22:23:16.924Z,8.07
2018-03-31T22:25:45.079Z,8.13
2018-03-31T22:28:12.680Z,6.50
2018-03-31T22:30:40.219Z,5.90
2018-03-31T22:33:07.864Z,6.53
2018-03-31T22:35:37.288Z,5.80
2018-03-31T22:38:06.323Z,9.47
2018-03-31T22:40:34.080Z,12.63
2018-03-31T22:43:03.438Z,8.07
2018-03-31T22:45:31.589Z,7.90
2018-03-31T22:48:00.744Z,7.93
2018-03-31T22:50:29.516Z,8.03
2018-03-31T22:52:57.694Z,7.43
2018-03-31T22:55:25.207Z,5.53
2018-03-31T22:57:52.816Z,5.80
2018-03-31T23:00:20.357Z,14.30
2018-03-31T23:02:48.743Z,10.67
2018-03-31T23:05:17.220Z,6.57
2018-03-31T23:07:45.310Z,8.30
2018-03-31T23:10:13.227Z,22.10
2018-03-31T23:12:41.918Z,7.43
2018-03-31T23:15:09.787Z,6.27
2018-03-31T23:17:38.463Z,4.60
2018-03-31T23:20:07.115Z,5.70
2018-03-31T23:22:35.848Z,6.43
2018-03-31T23:25:04.170Z,7.27
2018-03-31T23:27:32.670Z,10.40
2018-03-31T23:30:00.916Z,8.77
2018-03-31T23:32:29.432Z,7.50
2018-03-31T23:34:59.103Z,7.20
2018-03-31T23:37:28.170Z,6.97
2018-03-31T23:39:57.261Z,7.63
2018-03-31T23:42:25.080Z,7.90
2018-03-31T23:44:52.875Z,9.47
2018-03-31T23:47:21.717Z,10.17
2018-03-31T23:49:49.513Z,9.77
2018-03-31T23:52:18.040Z,11.03
2018-03-31T23:54:45.628Z,10.37
2018-03-31T23:57:13.257Z,10.00
2018-03-31T23:59:41.407Z,10.77
